Time;durP1;ratioP1;P1;durP2;ratioP2;P2;SDS_P1;SDS_P2;PMS_P1;PMS_P2;Temp;Humidity;BMP_temperature;BMP_pressure;BME280_temperature;BME280_humidity;BME280_pressure;Samples;Min_cycle;Max_cycle;Signal;HPM_P1;HPM_P2
2021/05/25 00:01:33;;;;;;;2.70;2.50;;;;;;;;;;5033600;28;20448;-59
2021/05/25 00:03:59;;;;;;;3.63;2.97;;;;;;;;;;5033193;28;20952;-59
2021/05/25 00:06:27;;;;;;;4.77;4.20;;;;;;;;;;5033119;28;20464;-59
2021/05/25 00:08:54;;;;;;;3.15;2.85;;;;;;;;;;5033454;28;20457;-59
2021/05/25 00:11:20;;;;;;;7.60;4.70;;;;;;;;;;5033227;28;20566;-59
2021/05/25 00:13:47;;;;;;;4.10;3.53;;;;;;;;;;5033588;28;20788;-59
2021/05/25 00:16:14;;;;;;;2.85;2.38;;;;;;;;;;5033004;28;20666;-59
2021/05/25 00:18:41;;;;;;;2.70;2.35;;;;;;;;;;5033111;28;20605;-59
2021/05/25 00:21:08;;;;;;;5.15;4.35;;;;;;;;;;5033128;28;20209;-59
2021/05/25 00:23:35;;;;;;;6.00;4.23;;;;;;;;;;5034915;28;20246;-59
2021/05/25 00:26:02;;;;;;;6.45;3.53;;;;;;;;;;5037332;28;20515;-59
2021/05/25 00:28:29;;;;;;;10.45;5.68;;;;;;;;;;5037140;28;20218;-59
2021/05/25 00:30:55;;;;;;;6.63;5.63;;;;;;;;;;5037341;28;20280;-60
2021/05/25 00:33:22;;;;;;;3.45;2.97;;;;;;;;;;5036879;28;20202;-59
2021/05/25 00:35:51;;;;;;;5.43;4.93;;;;;;;;;;5037133;28;20202;-59
2021/05/25 00:38:17;;;;;;;4.47;3.53;;;;;;;;;;5037111;28;20477;-59
2021/05/25 00:40:45;;;;;;;3.67;3.30;;;;;;;;;;5037116;28;20202;-60
2021/05/25 00:43:12;;;;;;;4.15;2.80;;;;;;;;;;5037038;28;20456;-60
2021/05/25 00:45:38;;;;;;;2.80;2.27;;;;;;;;;;5037124;28;20210;-59
2021/05/25 00:48:06;;;;;;;3.05;2.22;;;;;;;;;;5036977;28;20483;-59
2021/05/25 00:50:32;;;;;;;2.93;2.40;;;;;;;;;;5036677;28;20207;-59
2021/05/25 00:53:00;;;;;;;3.57;2.27;;;;;;;;;;5036867;28;20863;-59
2021/05/25 00:55:27;;;;;;;3.60;2.97;;;;;;;;;;5036494;28;20452;-59
2021/05/25 00:57:56;;;;;;;2.60;2.40;;;;;;;;;;5036622;28;20807;-59
2021/05/25 01:00:25;;;;;;;3.97;2.70;;;;;;;;;;5037542;28;20445;-59
2021/05/25 01:02:52;;;;;;;3.93;3.53;;;;;;;;;;5036719;28;20445;-59
2021/05/25 01:05:19;;;;;;;3.23;2.80;;;;;;;;;;5037028;28;20447;-59
2021/05/25 01:07:46;;;;;;;1.27;1.17;;;;;;;;;;5060850;22;20551;-62
2021/05/25 01:10:15;;;;;;;1.50;1.40;;;;;;;;;;5036252;28;20444;-62
2021/05/25 01:12:51;;;;;;;1.60;1.37;;;;;;;;;;5036443;28;20456;-62
2021/05/25 01:15:19;;;;;;;1.70;1.47;;;;;;;;;;5036454;28;20527;-61
2021/05/25 01:17:46;;;;;;;1.30;1.20;;;;;;;;;;5036337;28;20494;-63
2021/05/25 01:20:13;;;;;;;2.10;1.50;;;;;;;;;;5036345;28;20440;-63
2021/05/25 01:22:41;;;;;;;3.27;1.70;;;;;;;;;;5036214;28;20506;-62
2021/05/25 01:25:12;;;;;;;1.53;1.27;;;;;;;;;;5036239;28;20436;-63
2021/05/25 01:27:38;;;;;;;1.90;1.53;;;;;;;;;;5036112;28;20468;-63
2021/05/25 01:30:06;;;;;;;2.33;1.07;;;;;;;;;;5036191;28;20534;-63
2021/05/25 01:32:33;;;;;;;2.00;1.40;;;;;;;;;;5035820;28;20452;-63
2021/05/25 01:35:00;;;;;;;2.77;1.50;;;;;;;;;;5035366;28;20445;-63
2021/05/25 01:37:27;;;;;;;2.23;1.40;;;;;;;;;;5035618;28;20980;-64
2021/05/25 01:39:55;;;;;;;1.50;1.40;;;;;;;;;;5035953;28;20440;-63
2021/05/25 01:42:22;;;;;;;2.17;1.40;;;;;;;;;;5035705;28;20551;-63
2021/05/25 01:44:49;;;;;;;2.57;1.80;;;;;;;;;;5035607;28;20460;-63
2021/05/25 01:47:17;;;;;;;1.90;1.40;;;;;;;;;;5035728;28;20476;-64
2021/05/25 01:49:44;;;;;;;1.43;1.27;;;;;;;;;;5036261;28;20571;-62
2021/05/25 01:52:12;;;;;;;1.70;1.50;;;;;;;;;;5036372;28;20449;-63
2021/05/25 01:54:39;;;;;;;1.55;1.45;;;;;;;;;;5036742;28;20860;-63
2021/05/25 01:57:06;;;;;;;2.80;1.50;;;;;;;;;;5036213;28;20245;-63
2021/05/25 01:59:33;;;;;;;1.83;1.27;;;;;;;;;;5036259;28;20449;-63
2021/05/25 02:02:00;;;;;;;2.22;1.40;;;;;;;;;;5037056;28;20465;-63
2021/05/25 02:04:26;;;;;;;2.97;1.90;;;;;;;;;;5037935;28;20213;-63
2021/05/25 02:06:53;;;;;;;1.20;1.10;;;;;;;;;;5039389;28;20448;-63
2021/05/25 02:09:20;;;;;;;2.50;1.63;;;;;;;;;;5038604;28;20229;-63
2021/05/25 02:11:47;;;;;;;2.53;1.50;;;;;;;;;;5040047;28;20456;-63
2021/05/25 02:14:14;;;;;;;1.83;1.53;;;;;;;;;;5040632;28;20468;-62
2021/05/25 02:16:41;;;;;;;1.43;1.30;;;;;;;;;;5043303;28;20475;-63
2021/05/25 02:19:08;;;;;;;1.47;1.37;;;;;;;;;;5042064;28;20449;-63
2021/05/25 02:21:35;;;;;;;1.53;1.37;;;;;;;;;;5040788;28;20970;-63
2021/05/25 02:24:01;;;;;;;2.40;1.40;;;;;;;;;;5038498;28;21063;-63
2021/05/25 02:26:28;;;;;;;1.80;1.30;;;;;;;;;;5035941;28;20816;-63
2021/05/25 02:28:55;;;;;;;2.53;1.53;;;;;;;;;;5035058;28;20487;-63
2021/05/25 02:31:23;;;;;;;1.73;1.37;;;;;;;;;;5035096;28;20460;-63
2021/05/25 02:33:50;;;;;;;1.50;0.90;;;;;;;;;;5037357;28;20453;-63
2021/05/25 02:36:16;;;;;;;1.65;1.23;;;;;;;;;;5035362;28;20959;-63
2021/05/25 02:38:43;;;;;;;1.20;1.10;;;;;;;;;;5034587;28;20214;-63
2021/05/25 02:41:10;;;;;;;1.47;1.23;;;;;;;;;;5034804;28;20457;-62
2021/05/25 02:43:37;;;;;;;1.20;1.10;;;;;;;;;;5034481;28;20449;-63
2021/05/25 02:46:03;;;;;;;1.17;1.00;;;;;;;;;;5034003;28;20968;-63
2021/05/25 02:48:31;;;;;;;2.50;1.50;;;;;;;;;;5033636;28;20508;-63
2021/05/25 02:50:58;;;;;;;3.13;1.10;;;;;;;;;;5034643;28;20445;-63
2021/05/25 02:53:25;;;;;;;2.15;1.33;;;;;;;;;;5034370;28;20966;-63
2021/05/25 02:55:52;;;;;;;1.17;1.07;;;;;;;;;;5034721;28;20198;-63
2021/05/25 02:58:19;;;;;;;1.92;1.30;;;;;;;;;;5034398;28;20468;-63
2021/05/25 03:00:47;;;;;;;1.20;1.10;;;;;;;;;;5034159;28;20694;-63
2021/05/25 03:03:14;;;;;;;2.20;1.70;;;;;;;;;;5034396;28;20198;-62
2021/05/25 03:05:42;;;;;;;1.83;1.27;;;;;;;;;;5034403;28;20264;-63
2021/05/25 03:08:10;;;;;;;1.38;0.90;;;;;;;;;;5033681;28;20231;-62
2021/05/25 03:10:37;;;;;;;1.40;1.30;;;;;;;;;;5034269;28;20554;-62
2021/05/25 03:13:04;;;;;;;3.88;1.63;;;;;;;;;;5034335;28;20202;-62
2021/05/25 03:15:32;;;;;;;2.80;1.17;;;;;;;;;;5034147;28;20205;-62
2021/05/25 03:17:59;;;;;;;2.58;1.30;;;;;;;;;;5033803;28;20222;-64
2021/05/25 03:20:26;;;;;;;2.47;1.52;;;;;;;;;;5033760;28;20735;-62
2021/05/25 03:22:54;;;;;;;1.38;1.27;;;;;;;;;;5034026;28;20256;-62
2021/05/25 03:25:20;;;;;;;3.38;1.10;;;;;;;;;;5033655;28;20256;-63
2021/05/25 03:27:48;;;;;;;1.60;1.43;;;;;;;;;;5033818;28;20256;-63
2021/05/25 03:30:16;;;;;;;2.10;1.60;;;;;;;;;;5033505;28;20491;-63
2021/05/25 03:32:43;;;;;;;3.25;1.17;;;;;;;;;;5033537;28;20675;-63
2021/05/25 03:35:10;;;;;;;2.50;1.75;;;;;;;;;;5033638;28;20206;-63
2021/05/25 03:37:37;;;;;;;2.53;1.50;;;;;;;;;;5033732;28;20226;-63
2021/05/25 03:40:06;;;;;;;1.27;1.17;;;;;;;;;;5033432;28;20949;-62
2021/05/25 03:42:33;;;;;;;1.90;1.23;;;;;;;;;;5033643;28;20202;-63
2021/05/25 03:45:00;;;;;;;3.08;1.55;;;;;;;;;;5033665;28;20445;-63
2021/05/25 03:47:27;;;;;;;2.60;1.57;;;;;;;;;;5033523;28;20222;-63
2021/05/25 03:49:54;;;;;;;1.20;1.05;;;;;;;;;;5033159;28;20477;-62
2021/05/25 03:52:21;;;;;;;1.40;1.30;;;;;;;;;;5033204;28;20203;-62
2021/05/25 03:54:51;;;;;;;1.70;1.50;;;;;;;;;;5033546;28;20475;-62
2021/05/25 03:58:48;;;;;;;1.70;1.30;;;;;;;;;;5033055;28;20732;-63
2021/05/25 04:00:17;;;;;;;2.80;1.37;;;;;;;;;;5032894;28;20533;-61
2021/05/25 04:02:43;;;;;;;1.60;1.50;;;;;;;;;;5033255;28;20452;-62
2021/05/25 04:08:10;;;;;;;3.40;1.40;;;;;;;;;;5091205;28;20603;-63
2021/05/25 04:10:37;;;;;;;2.53;1.20;;;;;;;;;;5091611;28;20806;-63
2021/05/25 04:13:04;;;;;;;2.07;1.60;;;;;;;;;;5090872;28;20492;-63
2021/05/25 04:15:30;;;;;;;4.47;1.30;;;;;;;;;;5092811;28;20454;-63
2021/05/25 04:17:57;;;;;;;1.60;1.27;;;;;;;;;;5093772;28;20465;-63
2021/05/25 04:20:24;;;;;;;2.00;1.33;;;;;;;;;;5093672;28;20450;-63
2021/05/25 04:22:51;;;;;;;2.40;1.30;;;;;;;;;;5094937;28;20466;-63
2021/05/25 04:25:19;;;;;;;1.47;1.20;;;;;;;;;;5094252;28;20450;-62
2021/05/25 04:27:46;;;;;;;1.40;1.30;;;;;;;;;;5094229;28;20486;-63
2021/05/25 04:30:13;;;;;;;3.50;1.10;;;;;;;;;;5093568;28;20450;-63
2021/05/25 04:32:40;;;;;;;1.10;0.83;;;;;;;;;;5093382;28;20498;-63
2021/05/25 04:35:07;;;;;;;1.90;1.13;;;;;;;;;;5093210;28;20447;-63
2021/05/25 04:37:34;;;;;;;2.63;1.30;;;;;;;;;;5091338;28;20466;-62
2021/05/25 04:40:01;;;;;;;2.00;1.40;;;;;;;;;;5090741;28;20500;-63
2021/05/25 04:42:28;;;;;;;1.83;1.03;;;;;;;;;;5090856;28;20454;-61
2021/05/25 04:44:55;;;;;;;1.97;1.20;;;;;;;;;;5090969;28;20449;-63
2021/05/25 04:47:22;;;;;;;1.10;1.00;;;;;;;;;;5090520;28;20486;-62
2021/05/25 04:49:49;;;;;;;1.83;1.00;;;;;;;;;;5090331;28;20447;-63
2021/05/25 04:52:16;;;;;;;2.83;0.90;;;;;;;;;;5089995;28;20446;-62
2021/05/25 04:54:43;;;;;;;1.33;1.00;;;;;;;;;;5090175;28;20446;-62
2021/05/25 04:57:10;;;;;;;1.70;1.07;;;;;;;;;;5089961;28;20450;-63
2021/05/25 04:59:37;;;;;;;2.43;1.43;;;;;;;;;;5090094;28;20575;-62
2021/05/25 05:02:04;;;;;;;1.57;1.03;;;;;;;;;;5090145;28;20442;-62
2021/05/25 05:04:31;;;;;;;1.57;1.00;;;;;;;;;;5089919;28;20453;-62
2021/05/25 05:06:58;;;;;;;2.30;1.30;;;;;;;;;;5089383;28;20539;-63
2021/05/25 05:09:24;;;;;;;3.10;1.10;;;;;;;;;;5089824;28;20499;-63
2021/05/25 05:11:51;;;;;;;5.03;0.97;;;;;;;;;;5089758;28;20453;-63
2021/05/25 05:14:18;;;;;;;2.77;1.30;;;;;;;;;;5089880;28;20504;-62
2021/05/25 05:16:46;;;;;;;1.70;1.10;;;;;;;;;;5089724;28;20449;-62
2021/05/25 05:19:12;;;;;;;2.33;1.03;;;;;;;;;;5077406;28;20915;-63
2021/05/25 05:21:39;;;;;;;4.43;1.70;;;;;;;;;;5075786;28;20451;-62
2021/05/25 05:24:06;;;;;;;2.50;1.40;;;;;;;;;;5075725;28;20439;-63
2021/05/25 05:26:33;;;;;;;2.03;1.20;;;;;;;;;;5076188;28;20471;-61
2021/05/25 05:29:00;;;;;;;1.67;1.53;;;;;;;;;;5075672;28;20520;-62
2021/05/25 05:31:26;;;;;;;4.83;1.17;;;;;;;;;;5075738;28;20451;-62
2021/05/25 05:33:54;;;;;;;2.80;1.27;;;;;;;;;;5075436;28;20938;-62
2021/05/25 05:36:21;;;;;;;0.97;0.97;;;;;;;;;;5075861;28;20497;-62
2021/05/25 05:38:47;;;;;;;2.97;1.20;;;;;;;;;;5075888;28;20466;-62
2021/05/25 05:41:14;;;;;;;3.33;2.13;;;;;;;;;;5075625;28;20434;-61
2021/05/25 05:43:41;;;;;;;1.30;1.00;;;;;;;;;;5075411;28;20938;-61
2021/05/25 05:46:08;;;;;;;1.50;1.20;;;;;;;;;;5075351;28;20471;-61
2021/05/25 05:48:35;;;;;;;1.53;1.20;;;;;;;;;;5075378;28;20470;-61
2021/05/25 05:51:03;;;;;;;1.33;0.93;;;;;;;;;;5075817;28;20458;-62
2021/05/25 05:53:30;;;;;;;1.60;1.00;;;;;;;;;;5075570;28;20455;-62
2021/05/25 05:55:57;;;;;;;4.80;1.27;;;;;;;;;;5076233;28;20788;-61
2021/05/25 05:58:23;;;;;;;1.83;1.10;;;;;;;;;;5075282;28;20524;-61
2021/05/25 06:00:50;;;;;;;2.00;1.03;;;;;;;;;;5075455;28;20439;-63
2021/05/25 06:03:17;;;;;;;1.80;1.30;;;;;;;;;;5074941;28;20455;-62
2021/05/25 06:05:44;;;;;;;2.50;2.17;;;;;;;;;;5074765;28;20447;-62
2021/05/25 06:08:13;;;;;;;2.03;1.40;;;;;;;;;;5074716;28;20487;-62
2021/05/25 06:10:42;;;;;;;2.20;1.40;;;;;;;;;;5075093;28;20451;-62
2021/05/25 06:13:09;;;;;;;2.33;1.20;;;;;;;;;;5074466;28;20430;-61
2021/05/25 06:15:37;;;;;;;1.67;1.37;;;;;;;;;;5075084;28;20259;-62
2021/05/25 06:18:04;;;;;;;1.83;1.50;;;;;;;;;;5074864;28;20521;-62
2021/05/25 06:20:31;;;;;;;1.87;1.40;;;;;;;;;;5074750;28;20440;-61
2021/05/25 06:22:58;;;;;;;1.93;1.50;;;;;;;;;;5074625;28;20459;-60
2021/05/25 06:25:26;;;;;;;1.53;1.33;;;;;;;;;;5074998;28;20443;-61
2021/05/25 06:27:53;;;;;;;3.00;1.20;;;;;;;;;;5075368;28;20483;-59
2021/05/25 06:30:20;;;;;;;4.53;1.70;;;;;;;;;;5074562;28;20466;-59
2021/05/25 06:32:47;;;;;;;3.20;1.20;;;;;;;;;;5076541;28;20942;-58
2021/05/25 06:35:16;;;;;;;1.27;0.90;;;;;;;;;;5076491;28;20447;-59
2021/05/25 06:37:43;;;;;;;3.20;1.30;;;;;;;;;;5075463;28;20490;-59
2021/05/25 06:40:10;;;;;;;3.80;1.80;;;;;;;;;;5074759;28;20902;-59
2021/05/25 06:42:38;;;;;;;1.30;1.20;;;;;;;;;;5074664;28;20862;-61
2021/05/25 06:45:05;;;;;;;3.30;1.07;;;;;;;;;;5075867;28;20450;-61
2021/05/25 06:47:32;;;;;;;2.90;0.87;;;;;;;;;;5074468;28;20479;-60
2021/05/25 06:49:59;;;;;;;2.20;1.30;;;;;;;;;;5075922;28;20500;-60
2021/05/25 06:52:25;;;;;;;1.87;1.30;;;;;;;;;;5075531;28;20443;-59
2021/05/25 06:54:52;;;;;;;2.03;1.10;;;;;;;;;;5074985;28;20443;-62
2021/05/25 06:57:19;;;;;;;1.90;1.03;;;;;;;;;;5074691;28;20464;-62
2021/05/25 06:59:47;;;;;;;1.70;1.00;;;;;;;;;;5074235;28;20443;-59
2021/05/25 07:02:14;;;;;;;1.60;1.30;;;;;;;;;;5074188;28;20961;-62
2021/05/25 07:04:40;;;;;;;2.83;1.17;;;;;;;;;;5074560;28;20459;-63
2021/05/25 07:07:07;;;;;;;3.70;1.40;;;;;;;;;;5074356;28;20605;-62
2021/05/25 07:09:34;;;;;;;1.27;1.10;;;;;;;;;;5074053;28;20450;-62
2021/05/25 07:12:02;;;;;;;3.00;1.00;;;;;;;;;;5073752;28;20509;-62
2021/05/25 07:14:29;;;;;;;1.60;1.30;;;;;;;;;;5073881;28;20449;-61
2021/05/25 07:16:57;;;;;;;1.90;1.17;;;;;;;;;;5073473;28;20444;-62
2021/05/25 07:19:24;;;;;;;1.57;1.20;;;;;;;;;;5073281;28;20435;-61
2021/05/25 07:21:50;;;;;;;1.50;1.23;;;;;;;;;;5073754;28;20451;-62
2021/05/25 07:24:17;;;;;;;2.27;1.37;;;;;;;;;;5073831;28;20455;-63
2021/05/25 07:26:44;;;;;;;2.00;1.30;;;;;;;;;;5073446;28;20479;-63
2021/05/25 07:29:11;;;;;;;1.40;1.10;;;;;;;;;;5073846;28;20447;-60
2021/05/25 07:31:38;;;;;;;3.00;2.43;;;;;;;;;;5074892;28;20809;-62
2021/05/25 07:34:05;;;;;;;1.70;1.20;;;;;;;;;;5076100;28;20501;-61
2021/05/25 07:36:32;;;;;;;2.73;1.13;;;;;;;;;;5074450;28;20439;-61
2021/05/25 07:38:59;;;;;;;4.20;1.20;;;;;;;;;;5074041;28;20459;-61
2021/05/25 07:41:26;;;;;;;2.83;1.30;;;;;;;;;;5074282;28;20443;-62
2021/05/25 07:43:52;;;;;;;2.53;1.10;;;;;;;;;;5075201;28;20439;-62
2021/05/25 07:46:22;;;;;;;1.03;0.80;;;;;;;;;;5075197;28;20475;-62
2021/05/25 07:48:49;;;;;;;4.10;2.20;;;;;;;;;;5076903;28;20489;-60
2021/05/25 07:51:17;;;;;;;1.80;1.00;;;;;;;;;;5075345;28;20454;-61
2021/05/25 07:53:44;;;;;;;3.03;1.00;;;;;;;;;;5075777;28;20443;-61
2021/05/25 07:56:11;;;;;;;1.43;0.90;;;;;;;;;;5075378;28;20443;-61
2021/05/25 07:58:38;;;;;;;2.10;1.47;;;;;;;;;;5075952;28;20462;-63
2021/05/25 08:01:05;;;;;;;2.17;0.90;;;;;;;;;;5074936;28;20443;-60
2021/05/25 08:03:31;;;;;;;1.93;0.93;;;;;;;;;;5073742;28;20455;-61
2021/05/25 08:05:59;;;;;;;5.83;1.20;;;;;;;;;;5072893;28;20450;-62
2021/05/25 08:08:27;;;;;;;1.67;1.17;;;;;;;;;;5076459;28;20482;-63
2021/05/25 08:10:54;;;;;;;2.33;1.27;;;;;;;;;;5077957;28;20496;-61
2021/05/25 08:13:21;;;;;;;1.83;1.10;;;;;;;;;;5075610;28;20446;-62
2021/05/25 08:15:49;;;;;;;1.87;1.00;;;;;;;;;;5075077;28;20934;-61
2021/05/25 08:18:23;;;;;;;1.93;1.07;;;;;;;;;;5075154;28;20546;-61
2021/05/25 08:20:50;;;;;;;2.00;1.03;;;;;;;;;;5076310;28;20439;-61
2021/05/25 08:23:17;;;;;;;1.70;0.80;;;;;;;;;;5075590;28;20478;-61
2021/05/25 08:25:45;;;;;;;1.50;0.60;;;;;;;;;;5076833;28;20443;-62
2021/05/25 08:28:13;;;;;;;2.60;0.90;;;;;;;;;;5076385;28;20969;-61
2021/05/25 08:30:41;;;;;;;1.70;0.70;;;;;;;;;;5075279;28;20470;-62
2021/05/25 08:33:07;;;;;;;1.17;0.83;;;;;;;;;;5074208;28;20443;-62
2021/05/25 08:35:35;;;;;;;1.53;0.80;;;;;;;;;;5074067;28;20447;-61
2021/05/25 08:38:03;;;;;;;1.37;0.80;;;;;;;;;;5075467;28;20907;-60
2021/05/25 08:40:31;;;;;;;1.93;0.73;;;;;;;;;;5076163;28;20443;-62
2021/05/25 08:42:58;;;;;;;1.73;1.50;;;;;;;;;;5076129;28;20452;-61
2021/05/25 08:45:26;;;;;;;1.60;0.97;;;;;;;;;;5074532;28;20455;-62
2021/05/25 08:47:53;;;;;;;2.03;0.77;;;;;;;;;;5074349;28;20479;-61
2021/05/25 08:50:21;;;;;;;1.17;0.90;;;;;;;;;;5073849;28;20451;-61
2021/05/25 08:52:48;;;;;;;1.43;0.77;;;;;;;;;;5073368;28;20934;-62
2021/05/25 08:55:15;;;;;;;1.30;0.60;;;;;;;;;;5076788;28;20543;-61
2021/05/25 08:57:42;;;;;;;4.30;1.13;;;;;;;;;;5077277;28;20462;-62
2021/05/25 09:00:10;;;;;;;1.77;0.70;;;;;;;;;;5076939;28;20513;-62
2021/05/25 09:02:37;;;;;;;1.33;0.70;;;;;;;;;;5076714;28;21023;-62
2021/05/25 09:05:07;;;;;;;2.17;0.80;;;;;;;;;;5077427;28;20439;-62
2021/05/25 09:07:37;;;;;;;2.10;1.00;;;;;;;;;;5076211;28;20494;-61
2021/05/25 09:10:05;;;;;;;2.33;0.80;;;;;;;;;;5076920;28;20446;-62
2021/05/25 09:12:38;;;;;;;3.60;1.30;;;;;;;;;;5077667;28;20539;-62
2021/05/25 09:15:05;;;;;;;1.57;0.70;;;;;;;;;;5077450;28;20573;-60
2021/05/25 09:17:33;;;;;;;1.60;0.80;;;;;;;;;;5077820;28;20458;-59
2021/05/25 09:20:00;;;;;;;3.00;0.80;;;;;;;;;;5077510;28;20451;-61
2021/05/25 09:22:31;;;;;;;1.90;0.93;;;;;;;;;;5078157;28;20447;-61
2021/05/25 09:25:00;;;;;;;2.73;0.97;;;;;;;;;;5078029;28;20445;-60
2021/05/25 09:27:36;;;;;;;2.07;1.37;;;;;;;;;;5078645;28;20561;-61
2021/05/25 09:30:13;;;;;;;1.27;0.90;;;;;;;;;;5077454;28;20423;-61
2021/05/25 09:32:45;;;;;;;1.50;0.60;;;;;;;;;;5080051;28;20829;-61
2021/05/25 09:35:12;;;;;;;2.40;1.00;;;;;;;;;;5082357;28;20427;-61
2021/05/25 09:37:46;;;;;;;1.50;1.20;;;;;;;;;;5081552;28;20471;-61
2021/05/25 09:40:13;;;;;;;1.23;1.00;;;;;;;;;;5082763;28;20439;-61
2021/05/25 09:42:40;;;;;;;4.43;0.77;;;;;;;;;;5082066;28;20473;-60
2021/05/25 09:45:11;;;;;;;1.23;0.90;;;;;;;;;;5083245;28;20444;-61
2021/05/25 09:47:39;;;;;;;0.80;0.70;;;;;;;;;;5084128;28;20491;-61
2021/05/25 09:50:08;;;;;;;1.47;1.00;;;;;;;;;;5084745;28;20520;-62
2021/05/25 09:52:35;;;;;;;1.70;1.10;;;;;;;;;;5082008;28;20443;-60
2021/05/25 09:55:11;;;;;;;0.87;0.53;;;;;;;;;;5080264;28;20472;-62
2021/05/25 09:57:42;;;;;;;0.83;0.60;;;;;;;;;;5079367;28;20463;-63
2021/05/25 10:00:25;;;;;;;1.53;0.80;;;;;;;;;;5080574;28;20586;-62
2021/05/25 10:03:09;;;;;;;1.23;0.50;;;;;;;;;;5080160;28;20439;-61
2021/05/25 10:05:37;;;;;;;2.33;0.73;;;;;;;;;;5080530;28;20431;-63
2021/05/25 10:08:04;;;;;;;3.23;0.80;;;;;;;;;;5078496;28;20965;-63
2021/05/25 10:10:32;;;;;;;1.43;0.80;;;;;;;;;;5085769;28;20451;-62
2021/05/25 10:12:59;;;;;;;1.60;0.83;;;;;;;;;;5088210;28;20500;-62
2021/05/25 10:15:27;;;;;;;3.30;1.00;;;;;;;;;;5087546;28;20541;-61
2021/05/25 10:20:40;;;;;;;0.83;0.63;;;;;;;;;;5076512;28;20419;-63
2021/05/25 10:23:09;;;;;;;0.97;0.70;;;;;;;;;;5075507;28;20447;-61
2021/05/25 10:25:36;;;;;;;1.27;0.80;;;;;;;;;;5075455;28;20443;-62
2021/05/25 10:28:07;;;;;;;0.87;0.63;;;;;;;;;;5075898;28;20849;-62
2021/05/25 10:30:43;;;;;;;1.00;0.80;;;;;;;;;;5076092;28;20489;-62
2021/05/25 10:33:21;;;;;;;1.30;1.07;;;;;;;;;;5075107;28;20922;-61
2021/05/25 10:35:56;;;;;;;1.30;0.70;;;;;;;;;;5074860;28;20450;-62
2021/05/25 10:38:24;;;;;;;2.20;1.17;;;;;;;;;;5074780;28;20470;-61
2021/05/25 10:40:52;;;;;;;1.00;0.80;;;;;;;;;;5075862;28;20451;-60
2021/05/25 10:43:33;;;;;;;1.00;0.90;;;;;;;;;;5076646;28;20504;-61
2021/05/25 10:46:14;;;;;;;0.80;0.73;;;;;;;;;;5073343;28;20442;-63
2021/05/25 10:48:52;;;;;;;1.80;0.67;;;;;;;;;;5074786;28;20625;-63
2021/05/25 10:51:20;;;;;;;0.90;0.80;;;;;;;;;;5074499;28;20446;-64
2021/05/25 10:53:47;;;;;;;0.90;0.60;;;;;;;;;;5074652;28;20451;-63
2021/05/25 10:56:28;;;;;;;1.47;0.90;;;;;;;;;;5074987;28;20796;-62
2021/05/25 10:59:01;;;;;;;1.07;0.50;;;;;;;;;;5072324;28;20475;-64
2021/05/25 11:01:31;;;;;;;1.10;0.80;;;;;;;;;;5074564;28;20820;-64
2021/05/25 11:04:08;;;;;;;0.67;0.53;;;;;;;;;;5074773;28;20450;-63
2021/05/25 11:06:35;;;;;;;1.07;0.57;;;;;;;;;;5074536;28;20512;-63
2021/05/25 11:09:20;;;;;;;0.70;0.60;;;;;;;;;;5074419;28;20474;-63
2021/05/25 11:11:46;;;;;;;0.90;0.53;;;;;;;;;;5074712;28;20424;-63
2021/05/25 11:14:13;;;;;;;1.30;1.07;;;;;;;;;;5073851;28;20439;-64
2021/05/25 11:16:40;;;;;;;1.10;0.90;;;;;;;;;;5073398;28;20435;-63
2021/05/25 11:19:34;;;;;;;1.67;0.70;;;;;;;;;;5074082;28;20447;-63
2021/05/25 11:24:58;;;;;;;1.07;0.80;;;;;;;;;;5074006;28;20446;-62
2021/05/25 11:27:29;;;;;;;1.00;0.70;;;;;;;;;;5073826;28;20532;-63
2021/05/25 11:29:59;;;;;;;0.90;0.73;;;;;;;;;;5074745;28;20443;-65
2021/05/25 11:32:26;;;;;;;0.80;0.70;;;;;;;;;;5074213;28;20447;-62
2021/05/25 11:34:56;;;;;;;1.53;0.83;;;;;;;;;;5074235;28;20444;-62
2021/05/25 11:37:24;;;;;;;2.17;0.70;;;;;;;;;;5074937;28;20455;-61
2021/05/25 11:39:52;;;;;;;0.97;0.60;;;;;;;;;;5074717;28;20482;-62
2021/05/25 11:42:23;;;;;;;0.90;0.70;;;;;;;;;;5074497;28;20439;-62
2021/05/25 11:44:51;;;;;;;0.80;0.80;;;;;;;;;;5074553;28;20516;-63
2021/05/25 11:47:18;;;;;;;1.20;0.80;;;;;;;;;;5075046;28;20869;-62
2021/05/25 11:49:46;;;;;;;0.70;0.50;;;;;;;;;;5073954;28;20452;-63
2021/05/25 11:52:19;;;;;;;0.90;0.80;;;;;;;;;;5073651;28;20454;-63
2021/05/25 11:54:48;;;;;;;2.33;0.90;;;;;;;;;;5073991;28;20480;-63
2021/05/25 11:57:25;;;;;;;1.00;0.60;;;;;;;;;;5073507;28;20468;-63
2021/05/25 11:59:52;;;;;;;0.80;0.70;;;;;;;;;;5075580;28;20450;-63
2021/05/25 12:02:25;;;;;;;0.93;0.80;;;;;;;;;;5077727;28;20503;-64
2021/05/25 12:05:00;;;;;;;0.83;0.80;;;;;;;;;;5077287;28;20447;-64
2021/05/25 12:07:27;;;;;;;1.40;0.90;;;;;;;;;;5077611;28;20505;-63
2021/05/25 12:09:58;;;;;;;1.77;0.90;;;;;;;;;;5076998;28;20451;-63
2021/05/25 12:12:26;;;;;;;0.90;0.70;;;;;;;;;;5079153;28;20531;-61
2021/05/25 12:14:53;;;;;;;2.50;1.90;;;;;;;;;;5076586;28;20461;-60
2021/05/25 12:17:24;;;;;;;1.07;0.97;;;;;;;;;;5075851;28;20466;-62
2021/05/25 12:19:54;;;;;;;1.17;0.63;;;;;;;;;;5075734;28;20451;-62
2021/05/25 12:22:36;;;;;;;1.10;0.73;;;;;;;;;;5075033;28;20546;-62
2021/05/25 12:25:29;;;;;;;1.83;0.70;;;;;;;;;;5073451;28;20454;-62
2021/05/25 12:28:06;;;;;;;1.20;0.80;;;;;;;;;;5039568;28;20487;-61
2021/05/25 12:30:33;;;;;;;0.90;0.73;;;;;;;;;;5078825;28;20500;-62
2021/05/25 12:33:00;;;;;;;1.67;0.80;;;;;;;;;;5078039;28;20470;-61
2021/05/25 12:35:27;;;;;;;1.10;0.60;;;;;;;;;;5078856;28;20458;-62
2021/05/25 12:38:04;;;;;;;1.37;1.03;;;;;;;;;;5078423;28;20489;-62
2021/05/25 12:40:31;;;;;;;1.33;0.80;;;;;;;;;;5077815;28;20438;-62
2021/05/25 12:42:58;;;;;;;2.97;1.27;;;;;;;;;;5077631;28;20492;-61
2021/05/25 12:45:30;;;;;;;1.00;0.80;;;;;;;;;;5077319;28;20785;-63
2021/05/25 12:47:58;;;;;;;2.07;1.10;;;;;;;;;;5077350;28;21016;-64
2021/05/25 12:50:25;;;;;;;1.87;1.17;;;;;;;;;;5077405;28;20530;-62
2021/05/25 12:53:01;;;;;;;1.10;0.70;;;;;;;;;;5077467;28;20435;-63
2021/05/25 12:55:28;;;;;;;1.00;0.90;;;;;;;;;;5080456;28;20464;-64
2021/05/25 12:57:56;;;;;;;0.80;0.60;;;;;;;;;;5084198;28;20478;-64
2021/05/25 13:00:28;;;;;;;1.93;0.80;;;;;;;;;;5087034;28;20439;-61
2021/05/25 13:02:55;;;;;;;0.93;0.80;;;;;;;;;;5087769;28;20428;-64
2021/05/25 13:08:00;;;;;;;2.53;1.00;;;;;;;;;;5053538;22;20810;-61
2021/05/25 13:10:32;;;;;;;1.47;0.90;;;;;;;;;;5035792;28;20448;-62
2021/05/25 13:13:12;;;;;;;1.30;1.20;;;;;;;;;;5035722;28;20429;-61
2021/05/25 13:15:40;;;;;;;1.20;1.10;;;;;;;;;;5035832;28;20452;-61
2021/05/25 13:18:10;;;;;;;1.70;1.60;;;;;;;;;;5036092;28;20441;-63
2021/05/25 13:20:37;;;;;;;2.27;1.50;;;;;;;;;;5035598;28;20488;-61
2021/05/25 13:23:04;;;;;;;1.63;1.10;;;;;;;;;;5035781;28;20539;-61
2021/05/25 13:25:35;;;;;;;2.40;1.63;;;;;;;;;;5035886;28;20441;-62
2021/05/25 13:28:02;;;;;;;1.43;1.33;;;;;;;;;;5035778;28;20583;-62
2021/05/25 13:30:43;;;;;;;1.60;1.20;;;;;;;;;;5036148;28;20471;-62
2021/05/25 13:33:10;;;;;;;1.30;1.20;;;;;;;;;;5035620;28;20921;-61
2021/05/25 13:35:37;;;;;;;2.00;1.13;;;;;;;;;;5035312;28;20449;-62
2021/05/25 13:38:06;;;;;;;1.87;1.30;;;;;;;;;;5035483;28;20790;-62
2021/05/25 13:40:34;;;;;;;1.13;0.93;;;;;;;;;;5035016;28;21050;-61
2021/05/25 13:43:00;;;;;;;1.27;1.00;;;;;;;;;;5035158;28;20467;-62
2021/05/25 13:45:27;;;;;;;4.83;1.63;;;;;;;;;;5035225;28;20445;-62
2021/05/25 13:47:55;;;;;;;1.30;1.07;;;;;;;;;;5035328;28;20535;-62
2021/05/25 13:50:27;;;;;;;1.77;1.20;;;;;;;;;;5035403;28;20449;-62
2021/05/25 13:52:55;;;;;;;1.83;1.73;;;;;;;;;;5034937;28;20436;-62
2021/05/25 13:55:26;;;;;;;7.20;3.10;;;;;;;;;;5035539;28;20449;-62
2021/05/25 13:57:53;;;;;;;1.87;1.17;;;;;;;;;;5035562;28;20463;-63
2021/05/25 14:00:30;;;;;;;1.40;1.30;;;;;;;;;;5035072;28;20445;-60
2021/05/25 14:02:57;;;;;;;2.10;1.90;;;;;;;;;;5034924;28;20483;-61
2021/05/25 14:05:25;;;;;;;3.60;1.60;;;;;;;;;;5034633;28;20498;-60
2021/05/25 14:07:53;;;;;;;1.63;1.40;;;;;;;;;;5034730;28;20518;-60
2021/05/25 14:10:20;;;;;;;1.47;1.17;;;;;;;;;;5034606;28;20449;-60
2021/05/25 14:12:47;;;;;;;2.40;1.50;;;;;;;;;;5034761;28;20488;-61
2021/05/25 14:15:14;;;;;;;5.80;1.50;;;;;;;;;;5034636;28;20448;-61
2021/05/25 14:17:41;;;;;;;1.57;1.30;;;;;;;;;;5034350;28;20469;-61
2021/05/25 14:20:08;;;;;;;2.17;1.17;;;;;;;;;;5034787;28;20483;-62
2021/05/25 14:22:35;;;;;;;3.17;1.50;;;;;;;;;;5034868;28;20448;-62
2021/05/25 14:25:02;;;;;;;2.07;1.67;;;;;;;;;;5034623;28;20491;-61
2021/05/25 14:27:29;;;;;;;3.20;1.70;;;;;;;;;;5034540;28;20839;-61
2021/05/25 14:29:56;;;;;;;1.53;1.40;;;;;;;;;;5034522;28;20845;-62
2021/05/25 14:32:23;;;;;;;2.73;1.47;;;;;;;;;;5034831;28;20810;-62
2021/05/25 14:34:49;;;;;;;1.90;1.40;;;;;;;;;;5034902;28;20445;-61
2021/05/25 14:37:16;;;;;;;3.00;1.77;;;;;;;;;;5034496;28;20465;-62
2021/05/25 14:39:44;;;;;;;2.00;1.60;;;;;;;;;;5034858;28;20444;-62
2021/05/25 14:42:10;;;;;;;2.27;1.43;;;;;;;;;;5034618;28;20445;-62
2021/05/25 14:44:37;;;;;;;1.30;1.17;;;;;;;;;;5034346;28;20453;-62
2021/05/25 14:47:04;;;;;;;1.77;1.40;;;;;;;;;;5033913;28;20488;-62
2021/05/25 14:49:31;;;;;;;2.97;1.30;;;;;;;;;;5034553;28;20520;-61
2021/05/25 14:51:57;;;;;;;5.13;1.20;;;;;;;;;;5033217;28;20449;-62
2021/05/25 14:54:24;;;;;;;1.40;0.80;;;;;;;;;;5034758;28;20445;-62
2021/05/25 14:56:57;;;;;;;1.53;1.00;;;;;;;;;;5034132;28;20544;-62
2021/05/25 14:59:24;;;;;;;0.70;0.70;;;;;;;;;;5034234;28;20473;-61
2021/05/25 15:01:55;;;;;;;1.13;0.77;;;;;;;;;;5034192;28;20540;-61